^^
Meteo Knjazevac Station Historical Data
Daily Summary for June 23, 2021 Units:  English    Metric   Both
Daily Weekly Monthly Yearly Custom
  High: Low: Average:
Temperature: 63 °F 57.6 °F 60.1 °F
Dew Point: 54.2 °F 51.4 °F 52.6 °F
Humidity: 80% 73% 77%
Wind Speed: 2mph 0mph 0.7mph
Wind Gust: 4mph - -
Wind- - West
Pressure: 30.11 in 30.10 in -
Precipitation: 0.00 in    
Historical Graphs
 
 
Tabular Data for June 23, 2021
Time Temperature Dew Point Pressure Wind Wind Speed Wind Gust Humidity Rainfall Rate (Hourly) solar Conditions
00:00 63 °F 54.2 °F 30.10 in Calm   3 mph 73% 0.00 in 0 W/m2
00:10 62.8 °F 54 °F 30.11 in West 1 mph 2 mph 73% 0.00 in 0 W/m2
00:20 62.4 °F 53.6 °F 30.11 in West 1 mph 2 mph 73% 0.00 in 0 W/m2
00:30 61.9 °F 53.5 °F 30.11 in West 1 mph 3 mph 74% 0.00 in 0 W/m2
00:40 61.5 °F 53.2 °F 30.11 in West 2 mph 4 mph 74% 0.00 in 0 W/m2
00:50 61.2 °F 52.8 °F 30.11 in West 2 mph 4 mph 74% 0.00 in 0 W/m2
01:00 61 °F 53 °F 30.11 in West 2 mph 4 mph 75% 0.00 in 0 W/m2
01:10 60.8 °F 52.8 °F 30.11 in West 1 mph 3 mph 75% 0.00 in 0 W/m2
01:20 60.4 °F 52.5 °F 30.11 in WNW 1 mph 2 mph 75% 0.00 in 0 W/m2
01:30 60.1 °F 52.9 °F 30.11 in Calm   2 mph 77% 0.00 in 0 W/m2
01:40 59.9 °F 52.7 °F 30.11 in Calm   2 mph 77% 0.00 in 0 W/m2
01:50 59.8 °F 52.5 °F 30.11 in Calm   2 mph 77% 0.00 in 0 W/m2
02:00 59.5 °F 52.7 °F 30.11 in Calm   2 mph 78% 0.00 in 0 W/m2
02:10 59.2 °F 52.3 °F 30.10 in Calm   2 mph 78% 0.00 in 0 W/m2
02:20 58.8 °F 52 °F 30.11 in Calm   2 mph 78% 0.00 in 0 W/m2
02:30 58.5 °F 52 °F 30.11 in Calm   2 mph 79% 0.00 in 0 W/m2
02:40 57.9 °F 51.4 °F 30.11 in WSW 1 mph 2 mph 79% 0.00 in 0 W/m2
02:50 57.7 °F 51.6 °F 30.11 in West 1 mph 3 mph 80% 0.00 in 0 W/m2
03:00 57.6 °F 51.4 °F 30.11 in Calm   3 mph 80% 0.00 in 0 W/m2
03:10 57.6 °F 51.4 °F 30.11 in Calm   3 mph 80% 0.00 in 0 W/m2
Knjazevac, Serbia
Compliments of Weather Underground - 2 mb